AKDT,Max TemperatureF,Mean TemperatureF,Min TemperatureF,Max Dew PointF,MeanDew PointF,Min DewpointF,Max Humidity, Mean Humidity, Min Humidity, Max Sea Level PressureIn, Mean Sea Level PressureIn, Min Sea Level PressureIn, Max VisibilityMiles, Mean VisibilityMiles, Min VisibilityMiles, Max Wind SpeedMPH, Mean Wind SpeedMPH, Max Gust SpeedMPH,PrecipitationIn, CloudCover, Events, WindDirDegrees
2013-10-1,30,29,25,22,20,19,81,69,56,30.23,30.20,30.19,10,10,9,7,2,,0.00,8,,338
2013-10-2,30,26,16,23,20,14,92,72,57,30.20,30.17,30.12,10,10,9,9,3,,0.00,4,,354
2013-10-3,32,32,28,25,23,22,78,68,57,30.12,30.04,29.96,10,10,10,12,7,16,0.00,8,,344
2013-10-4,30,30,23,28,25,21,92,80,59,30.03,30.00,29.97,10,10,10,8,3,,0.00,7,,276
2013-10-5,36,36,30,34,30,27,92,76,65,29.96,29.73,29.50,10,10,8,18,8,29,0.00,6,Rain,106
2013-10-6,35,36,35,36,35,34,100,96,93,29.81,29.63,29.49,10,10,10,14,10,20,0.00,8,Rain,96
2013-10-7,35,36,35,36,34,33,100,95,87,29.84,29.75,29.57,10,10,10,13,5,20,0.00,8,Rain,83
2013-10-8,36,35,33,34,33,31,100,92,79,29.67,29.17,28.93,10,9,5,23,14,34,0.00,8,Rain-Snow,78
2013-10-9,33,34,32,34,33,30,100,95,79,29.68,29.36,29.12,10,7,1,15,5,22,0.00,7,Rain-Snow,241
2013-10-10,34,32,30,34,31,27,100,91,75,29.69,29.57,29.44,10,10,5,18,7,28,0.00,8,Rain-Snow,90
2013-10-11,37,35,33,37,34,33,100,95,92,29.62,29.53,29.46,10,10,7,15,11,23,0.00,8,Rain-Snow,101
2013-10-12,39,38,37,37,37,35,96,93,89,29.75,29.63,29.61,10,10,10,16,10,24,0.00,8,Rain,76
2013-10-13,36,38,37,38,37,36,100,92,86,29.75,29.58,29.41,10,10,10,12,7,20,0.00,8,Rain,85
2013-10-14,37,37,35,39,36,35,100,98,93,29.81,29.59,29.43,10,9,2,7,4,,0.00,8,Rain,114
2013-10-15,37,37,37,37,36,35,100,94,93,29.81,29.70,29.62,10,10,9,12,7,16,0.00,8,Rain,94
2013-10-16,42,41,37,45,41,37,100,97,90,29.87,29.76,29.72,10,10,4,10,7,18,0.00,8,Rain,117
2013-10-17,34,42,37,45,41,36,100,98,93,29.88,29.66,29.51,10,10,5,12,5,,0.00,8,Rain,122
2013-10-18,43,36,28,43,33,27,100,98,93,29.68,29.52,29.36,10,8,1,12,5,16,0.00,6,Rain-Snow,14
2013-10-19,43,41,39,41,39,37,96,92,87,29.47,29.36,29.26,10,10,10,18,11,26,0.00,8,Rain,93
2013-10-20,37,40,37,39,37,33,100,94,79,29.89,29.52,29.35,10,10,8,12,8,18,0.00,8,Rain,113
2013-10-21,35,37,35,36,34,32,100,92,86,30.14,29.96,29.83,10,10,10,9,6,,0.00,7,Rain,94
2013-10-22,33,34,32,34,33,30,100,97,87,30.30,30.16,30.05,10,8,1,8,3,,0.00,8,Rain-Snow,101
2013-10-23,26,30,26,34,30,27,100,97,93,30.31,30.16,30.07,10,2,0,7,2,,0.00,8,Fog-Snow,353
2013-10-24,24,24,19,26,22,19,96,91,82,30.19,30.06,29.86,10,10,9,9,4,,0.00,0,,33
2013-10-25,34,29,24,30,26,19,89,82,75,30.14,29.91,29.72,10,9,7,20,11,28,0.00,7,Rain-Snow,87
2013-10-26,36,34,33,34,32,30,100,91,85,30.38,30.25,30.05,10,10,9,14,10,24,0.00,8,Rain-Snow,95
2013-10-27,37,35,33,34,33,29,100,92,70,30.26,29.88,29.67,10,10,5,20,12,31,0.00,7,Rain-Snow,102
2013-10-28,36,34,33,34,33,32,100,94,86,29.74,29.28,29.08,10,6,1,10,2,17,0.00,8,Rain-Snow,55
2013-10-29,21,27,21,32,29,19,100,93,82,29.60,29.35,29.11,10,7,1,9,2,,0.00,7,Rain-Snow,334
2013-10-30,12,20,15,21,17,13,100,92,80,29.61,29.54,29.44,10,10,2,10,2,,0.00,2,Snow,2
2013-10-31,10,14,9,18,11,6,96,92,85,29.94,29.77,29.62,10,10,10,9,4,,0.00,0,,337